sensor_id;sensor_type;location;lat;lon;timestamp;temperature;humidity
38784;DHT22;24531;45.502;12.238;2023-09-19T00:00:23;25.40;99.90
38784;DHT22;24531;45.502;12.238;2023-09-19T00:02:57;25.40;99.90
38784;DHT22;24531;45.502;12.238;2023-09-19T00:05:28;25.40;99.90
38784;DHT22;24531;45.502;12.238;2023-09-19T00:07:55;25.30;99.90
38784;DHT22;24531;45.502;12.238;2023-09-19T00:37:41;25.30;99.90
38784;DHT22;24531;45.502;12.238;2023-09-19T00:40:15;25.40;99.90
38784;DHT22;24531;45.502;12.238;2023-09-19T00:42:43;25.50;99.90
38784;DHT22;24531;45.502;12.238;2023-09-19T00:45:31;25.50;99.90
38784;DHT22;24531;45.502;12.238;2023-09-19T00:47:57;25.60;99.90
38784;DHT22;24531;45.502;12.238;2023-09-19T00:50:40;25.60;99.90
38784;DHT22;24531;45.502;12.238;2023-09-19T00:53:19;25.40;99.90
38784;DHT22;24531;45.502;12.238;2023-09-19T00:55:46;25.60;99.90
38784;DHT22;24531;45.502;12.238;2023-09-19T00:58:12;25.60;99.90
38784;DHT22;24531;45.502;12.238;2023-09-19T01:01:00;25.50;99.90
38784;DHT22;24531;45.502;12.238;2023-09-19T01:03:29;25.30;99.90
38784;DHT22;24531;45.502;12.238;2023-09-19T01:05:55;25.30;99.90
38784;DHT22;24531;45.502;12.238;2023-09-19T01:11:46;25.10;99.90
38784;DHT22;24531;45.502;12.238;2023-09-19T01:14:20;25.20;99.90
38784;DHT22;24531;45.502;12.238;2023-09-19T01:16:56;25.10;99.90
38784;DHT22;24531;45.502;12.238;2023-09-19T01:20:03;25.10;99.90
38784;DHT22;24531;45.502;12.238;2023-09-19T01:22:53;25.10;99.90
38784;DHT22;24531;45.502;12.238;2023-09-19T01:31:20;25.00;99.90
38784;DHT22;24531;45.502;12.238;2023-09-19T01:34:00;25.00;99.90
38784;DHT22;24531;45.502;12.238;2023-09-19T01:36:31;25.00;99.90
38784;DHT22;24531;45.502;12.238;2023-09-19T01:38:59;25.00;99.90
38784;DHT22;24531;45.502;12.238;2023-09-19T01:44:25;24.90;99.90
38784;DHT22;24531;45.502;12.238;2023-09-19T01:46:56;24.90;99.90
38784;DHT22;24531;45.502;12.238;2023-09-19T01:52:09;24.90;99.90
38784;DHT22;24531;45.502;12.238;2023-09-19T01:54:52;24.90;99.90
38784;DHT22;24531;45.502;12.238;2023-09-19T01:57:29;24.90;99.90
38784;DHT22;24531;45.502;12.238;2023-09-19T02:00:04;24.90;99.90
38784;DHT22;24531;45.502;12.238;2023-09-19T02:02:36;24.90;99.90
38784;DHT22;24531;45.502;12.238;2023-09-19T02:05:03;24.90;99.90
38784;DHT22;24531;45.502;12.238;2023-09-19T02:07:29;24.90;99.90
38784;DHT22;24531;45.502;12.238;2023-09-19T02:09:57;24.90;99.90
38784;DHT22;24531;45.502;12.238;2023-09-19T02:12:24;24.90;99.90
38784;DHT22;24531;45.502;12.238;2023-09-19T02:14:50;24.90;99.90
38784;DHT22;24531;45.502;12.238;2023-09-19T02:17:15;24.90;99.90
38784;DHT22;24531;45.502;12.238;2023-09-19T02:19:41;24.90;99.90
38784;DHT22;24531;45.502;12.238;2023-09-19T02:22:07;24.90;99.90
38784;DHT22;24531;45.502;12.238;2023-09-19T02:24:33;24.90;99.90
38784;DHT22;24531;45.502;12.238;2023-09-19T02:26:59;24.90;99.90
38784;DHT22;24531;45.502;12.238;2023-09-19T02:29:29;24.90;99.90
38784;DHT22;24531;45.502;12.238;2023-09-19T02:31:55;25.00;99.90
38784;DHT22;24531;45.502;12.238;2023-09-19T02:34:21;25.10;99.90
38784;DHT22;24531;45.502;12.238;2023-09-19T02:36:47;25.10;99.90
38784;DHT22;24531;45.502;12.238;2023-09-19T02:39:13;25.20;99.90
38784;DHT22;24531;45.502;12.238;2023-09-19T02:41:39;25.20;99.90
38784;DHT22;24531;45.502;12.238;2023-09-19T02:44:04;25.20;99.90
38784;DHT22;24531;45.502;12.238;2023-09-19T02:46:33;25.20;99.90
38784;DHT22;24531;45.502;12.238;2023-09-19T02:48:59;25.20;99.90
38784;DHT22;24531;45.502;12.238;2023-09-19T02:51:25;25.20;99.90
38784;DHT22;24531;45.502;12.238;2023-09-19T02:53:50;25.20;99.90
38784;DHT22;24531;45.502;12.238;2023-09-19T02:56:20;25.20;99.90
38784;DHT22;24531;45.502;12.238;2023-09-19T02:58:45;25.20;99.90
38784;DHT22;24531;45.502;12.238;2023-09-19T03:01:13;25.20;99.90
38784;DHT22;24531;45.502;12.238;2023-09-19T03:03:43;25.20;99.90
38784;DHT22;24531;45.502;12.238;2023-09-19T03:06:35;25.10;99.90
38784;DHT22;24531;45.502;12.238;2023-09-19T03:09:04;24.80;99.90
38784;DHT22;24531;45.502;12.238;2023-09-19T03:11:36;25.00;99.90
38784;DHT22;24531;45.502;12.238;2023-09-19T03:14:02;25.00;99.90
38784;DHT22;24531;45.502;12.238;2023-09-19T03:16:29;25.00;99.90
38784;DHT22;24531;45.502;12.238;2023-09-19T03:18:55;25.00;99.90
38784;DHT22;24531;45.502;12.238;2023-09-19T03:21:20;24.90;99.90
38784;DHT22;24531;45.502;12.238;2023-09-19T03:23:47;24.90;99.90
38784;DHT22;24531;45.502;12.238;2023-09-19T03:26:13;24.90;99.90
38784;DHT22;24531;45.502;12.238;2023-09-19T03:28:39;24.90;99.90
38784;DHT22;24531;45.502;12.238;2023-09-19T03:31:06;24.80;99.90
38784;DHT22;24531;45.502;12.238;2023-09-19T03:33:32;24.80;99.90
38784;DHT22;24531;45.502;12.238;2023-09-19T03:35:59;24.80;99.90
38784;DHT22;24531;45.502;12.238;2023-09-19T03:38:26;24.80;99.90
38784;DHT22;24531;45.502;12.238;2023-09-19T03:40:52;24.80;99.90
38784;DHT22;24531;45.502;12.238;2023-09-19T03:43:18;24.70;99.90
38784;DHT22;24531;45.502;12.238;2023-09-19T03:45:44;24.70;99.90
38784;DHT22;24531;45.502;12.238;2023-09-19T03:48:12;24.60;99.90
38784;DHT22;24531;45.502;12.238;2023-09-19T03:50:38;24.60;99.90
38784;DHT22;24531;45.502;12.238;2023-09-19T03:53:05;24.60;99.90
38784;DHT22;24531;45.502;12.238;2023-09-19T03:55:32;24.60;99.90
38784;DHT22;24531;45.502;12.238;2023-09-19T03:58:01;24.60;99.90
38784;DHT22;24531;45.502;12.238;2023-09-19T04:00:27;24.50;99.90
38784;DHT22;24531;45.502;12.238;2023-09-19T04:02:53;24.50;99.90
38784;DHT22;24531;45.502;12.238;2023-09-19T04:05:18;24.50;99.90
38784;DHT22;24531;45.502;12.238;2023-09-19T04:07:44;24.50;99.90
38784;DHT22;24531;45.502;12.238;2023-09-19T04:10:10;24.50;99.90
38784;DHT22;24531;45.502;12.238;2023-09-19T04:12:40;24.40;99.90
38784;DHT22;24531;45.502;12.238;2023-09-19T04:15:06;24.50;99.90
38784;DHT22;24531;45.502;12.238;2023-09-19T04:17:32;24.40;99.90
38784;DHT22;24531;45.502;12.238;2023-09-19T04:19:59;24.40;99.90
38784;DHT22;24531;45.502;12.238;2023-09-19T04:22:25;24.40;99.90
38784;DHT22;24531;45.502;12.238;2023-09-19T04:24:50;24.40;99.90
38784;DHT22;24531;45.502;12.238;2023-09-19T04:27:16;24.40;99.90
38784;DHT22;24531;45.502;12.238;2023-09-19T04:29:42;24.30;99.90
38784;DHT22;24531;45.502;12.238;2023-09-19T04:32:08;24.30;99.90
38784;DHT22;24531;45.502;12.238;2023-09-19T04:34:35;24.30;99.90
38784;DHT22;24531;45.502;12.238;2023-09-19T04:37:00;24.30;99.90
38784;DHT22;24531;45.502;12.238;2023-09-19T04:39:27;24.20;99.90
38784;DHT22;24531;45.502;12.238;2023-09-19T04:41:53;24.20;99.90
38784;DHT22;24531;45.502;12.238;2023-09-19T04:44:20;24.20;99.90
38784;DHT22;24531;45.502;12.238;2023-09-19T04:46:46;24.20;99.90
38784;DHT22;24531;45.502;12.238;2023-09-19T04:49:12;24.10;99.90
38784;DHT22;24531;45.502;12.238;2023-09-19T04:51:38;24.10;99.90
38784;DHT22;24531;45.502;12.238;2023-09-19T04:54:05;24.10;99.90
38784;DHT22;24531;45.502;12.238;2023-09-19T04:56:30;24.10;99.90
38784;DHT22;24531;45.502;12.238;2023-09-19T04:59:00;24.10;99.90
38784;DHT22;24531;45.502;12.238;2023-09-19T05:01:26;24.10;99.90
38784;DHT22;24531;45.502;12.238;2023-09-19T05:03:52;24.20;99.90
38784;DHT22;24531;45.502;12.238;2023-09-19T05:06:21;24.10;99.90
38784;DHT22;24531;45.502;12.238;2023-09-19T05:08:48;24.10;99.90
38784;DHT22;24531;45.502;12.238;2023-09-19T05:11:20;24.10;99.90
38784;DHT22;24531;45.502;12.238;2023-09-19T05:13:47;24.20;99.90
38784;DHT22;24531;45.502;12.238;2023-09-19T05:16:12;24.10;99.90
38784;DHT22;24531;45.502;12.238;2023-09-19T05:18:38;24.10;99.90
38784;DHT22;24531;45.502;12.238;2023-09-19T05:21:04;24.10;99.90
38784;DHT22;24531;45.502;12.238;2023-09-19T05:23:30;24.00;99.90
38784;DHT22;24531;45.502;12.238;2023-09-19T05:25:56;24.10;99.90
38784;DHT22;24531;45.502;12.238;2023-09-19T05:28:25;24.00;99.90
38784;DHT22;24531;45.502;12.238;2023-09-19T05:30:52;24.00;99.90
38784;DHT22;24531;45.502;12.238;2023-09-19T05:33:18;24.00;99.90
38784;DHT22;24531;45.502;12.238;2023-09-19T05:35:44;24.10;99.90
38784;DHT22;24531;45.502;12.238;2023-09-19T05:38:12;24.00;99.90
38784;DHT22;24531;45.502;12.238;2023-09-19T05:40:39;24.10;99.90
38784;DHT22;24531;45.502;12.238;2023-09-19T05:43:10;24.10;99.90
38784;DHT22;24531;45.502;12.238;2023-09-19T05:45:36;24.10;99.90
38784;DHT22;24531;45.502;12.238;2023-09-19T05:48:13;24.10;99.90
38784;DHT22;24531;45.502;12.238;2023-09-19T05:50:39;24.20;99.90
38784;DHT22;24531;45.502;12.238;2023-09-19T05:53:05;24.20;99.90
38784;DHT22;24531;45.502;12.238;2023-09-19T05:55:32;24.40;99.90
38784;DHT22;24531;45.502;12.238;2023-09-19T05:57:58;24.60;99.90
38784;DHT22;24531;45.502;12.238;2023-09-19T06:00:24;24.70;99.90
38784;DHT22;24531;45.502;12.238;2023-09-19T06:02:57;24.80;99.90
38784;DHT22;24531;45.502;12.238;2023-09-19T06:05:26;24.80;99.90
38784;DHT22;24531;45.502;12.238;2023-09-19T06:07:52;24.80;99.90
38784;DHT22;24531;45.502;12.238;2023-09-19T06:10:19;24.90;99.90
38784;DHT22;24531;45.502;12.238;2023-09-19T06:12:46;24.90;99.90
38784;DHT22;24531;45.502;12.238;2023-09-19T06:15:13;24.90;99.90
38784;DHT22;24531;45.502;12.238;2023-09-19T06:17:47;25.00;99.90
38784;DHT22;24531;45.502;12.238;2023-09-19T06:20:14;25.20;99.90
38784;DHT22;24531;45.502;12.238;2023-09-19T06:22:41;25.20;99.90
38784;DHT22;24531;45.502;12.238;2023-09-19T06:25:08;25.20;99.90
38784;DHT22;24531;45.502;12.238;2023-09-19T06:27:37;25.20;99.90
38784;DHT22;24531;45.502;12.238;2023-09-19T06:30:02;25.20;99.90
38784;DHT22;24531;45.502;12.238;2023-09-19T06:32:28;25.20;99.90
38784;DHT22;24531;45.502;12.238;2023-09-19T06:34:54;25.20;99.90
38784;DHT22;24531;45.502;12.238;2023-09-19T06:37:21;25.30;99.90
38784;DHT22;24531;45.502;12.238;2023-09-19T06:39:47;25.30;99.90
38784;DHT22;24531;45.502;12.238;2023-09-19T06:42:16;25.30;99.90
38784;DHT22;24531;45.502;12.238;2023-09-19T06:44:43;25.40;99.90
38784;DHT22;24531;45.502;12.238;2023-09-19T06:47:08;25.50;99.90
38784;DHT22;24531;45.502;12.238;2023-09-19T06:49:35;25.50;99.90
38784;DHT22;24531;45.502;12.238;2023-09-19T06:52:01;25.70;99.90
38784;DHT22;24531;45.502;12.238;2023-09-19T06:54:28;25.80;99.90
38784;DHT22;24531;45.502;12.238;2023-09-19T06:56:56;25.90;99.90
38784;DHT22;24531;45.502;12.238;2023-09-19T06:59:24;26.00;99.90
38784;DHT22;24531;45.502;12.238;2023-09-19T07:01:50;26.10;99.90
38784;DHT22;24531;45.502;12.238;2023-09-19T07:04:16;26.20;99.90
38784;DHT22;24531;45.502;12.238;2023-09-19T07:06:42;26.40;99.90
38784;DHT22;24531;45.502;12.238;2023-09-19T07:09:08;26.50;99.90
38784;DHT22;24531;45.502;12.238;2023-09-19T07:11:34;26.60;99.90
38784;DHT22;24531;45.502;12.238;2023-09-19T07:14:00;26.70;99.90
38784;DHT22;24531;45.502;12.238;2023-09-19T07:16:28;26.90;99.90
38784;DHT22;24531;45.502;12.238;2023-09-19T07:18:54;27.00;99.90
38784;DHT22;24531;45.502;12.238;2023-09-19T07:21:22;27.20;99.90
38784;DHT22;24531;45.502;12.238;2023-09-19T07:23:48;27.50;99.90
38784;DHT22;24531;45.502;12.238;2023-09-19T07:26:15;27.70;99.90
38784;DHT22;24531;45.502;12.238;2023-09-19T07:28:40;27.90;99.90
38784;DHT22;24531;45.502;12.238;2023-09-19T07:31:06;28.30;99.90
38784;DHT22;24531;45.502;12.238;2023-09-19T07:33:36;28.70;99.70
38784;DHT22;24531;45.502;12.238;2023-09-19T07:36:02;29.10;99.30
38784;DHT22;24531;45.502;12.238;2023-09-19T07:38:27;29.60;98.90
38784;DHT22;24531;45.502;12.238;2023-09-19T07:40:59;30.10;98.50
38784;DHT22;24531;45.502;12.238;2023-09-19T07:43:25;30.70;98.00
38784;DHT22;24531;45.502;12.238;2023-09-19T07:45:50;31.30;97.40
38784;DHT22;24531;45.502;12.238;2023-09-19T07:48:16;31.70;96.80
38784;DHT22;24531;45.502;12.238;2023-09-19T07:50:42;32.20;96.30
38784;DHT22;24531;45.502;12.238;2023-09-19T07:53:09;32.70;95.70
38784;DHT22;24531;45.502;12.238;2023-09-19T07:55:34;33.00;95.20
38784;DHT22;24531;45.502;12.238;2023-09-19T07:58:00;33.40;94.80
38784;DHT22;24531;45.502;12.238;2023-09-19T08:00:26;33.70;94.30
38784;DHT22;24531;45.502;12.238;2023-09-19T08:02:51;34.10;93.80
38784;DHT22;24531;45.502;12.238;2023-09-19T08:05:17;34.20;93.20
38784;DHT22;24531;45.502;12.238;2023-09-19T08:07:45;34.60;93.00
38784;DHT22;24531;45.502;12.238;2023-09-19T08:10:23;35.00;92.60
38784;DHT22;24531;45.502;12.238;2023-09-19T08:12:52;35.40;91.90
38784;DHT22;24531;45.502;12.238;2023-09-19T08:15:23;35.80;91.70
38784;DHT22;24531;45.502;12.238;2023-09-19T08:17:49;36.20;91.30
38784;DHT22;24531;45.502;12.238;2023-09-19T08:20:15;36.60;90.70
38784;DHT22;24531;45.502;12.238;2023-09-19T08:25:15;37.20;89.70
38784;DHT22;24531;45.502;12.238;2023-09-19T08:27:46;37.20;88.40
38784;DHT22;24531;45.502;12.238;2023-09-19T08:30:16;36.50;87.70
38784;DHT22;24531;45.502;12.238;2023-09-19T08:32:43;35.80;88.40
38784;DHT22;24531;45.502;12.238;2023-09-19T08:35:10;35.20;89.40
38784;DHT22;24531;45.502;12.238;2023-09-19T08:37:36;34.60;89.70
38784;DHT22;24531;45.502;12.238;2023-09-19T08:40:02;34.00;90.20
38784;DHT22;24531;45.502;12.238;2023-09-19T08:42:28;34.10;91.00
38784;DHT22;24531;45.502;12.238;2023-09-19T08:44:54;34.70;90.70
38784;DHT22;24531;45.502;12.238;2023-09-19T08:47:37;35.40;90.50
38784;DHT22;24531;45.502;12.238;2023-09-19T08:50:14;36.10;89.60
38784;DHT22;24531;45.502;12.238;2023-09-19T08:52:47;36.90;88.00
38784;DHT22;24531;45.502;12.238;2023-09-19T08:55:14;37.60;86.60
38784;DHT22;24531;45.502;12.238;2023-09-19T08:57:46;37.80;84.70
38784;DHT22;24531;45.502;12.238;2023-09-19T09:00:15;38.20;84.10
38784;DHT22;24531;45.502;12.238;2023-09-19T09:02:43;38.80;82.80
38784;DHT22;24531;45.502;12.238;2023-09-19T09:05:09;39.00;80.60
38784;DHT22;24531;45.502;12.238;2023-09-19T09:07:38;38.90;79.70
38784;DHT22;24531;45.502;12.238;2023-09-19T09:10:06;39.20;78.80
38784;DHT22;24531;45.502;12.238;2023-09-19T09:12:33;39.30;77.90
38784;DHT22;24531;45.502;12.238;2023-09-19T09:15:02;39.50;77.80
38784;DHT22;24531;45.502;12.238;2023-09-19T09:17:29;39.90;75.70
38784;DHT22;24531;45.502;12.238;2023-09-19T09:19:55;40.30;74.30
38784;DHT22;24531;45.502;12.238;2023-09-19T09:22:22;40.70;73.00
38784;DHT22;24531;45.502;12.238;2023-09-19T09:24:58;41.10;71.90
38784;DHT22;24531;45.502;12.238;2023-09-19T09:27:26;41.50;70.30
38784;DHT22;24531;45.502;12.238;2023-09-19T09:29:53;42.00;69.80
38784;DHT22;24531;45.502;12.238;2023-09-19T09:32:29;42.10;68.60
38784;DHT22;24531;45.502;12.238;2023-09-19T09:34:58;42.50;68.20
38784;DHT22;24531;45.502;12.238;2023-09-19T09:37:25;42.80;67.20
38784;DHT22;24531;45.502;12.238;2023-09-19T09:39:52;43.10;66.20
38784;DHT22;24531;45.502;12.238;2023-09-19T09:42:39;43.40;64.90
38784;DHT22;24531;45.502;12.238;2023-09-19T09:45:26;43.40;64.20
38784;DHT22;24531;45.502;12.238;2023-09-19T09:47:59;42.70;63.30
38784;DHT22;24531;45.502;12.238;2023-09-19T09:50:34;42.50;63.80
38784;DHT22;24531;45.502;12.238;2023-09-19T09:53:28;43.00;63.00
38784;DHT22;24531;45.502;12.238;2023-09-19T09:56:01;43.50;61.30
38784;DHT22;24531;45.502;12.238;2023-09-19T09:58:35;43.50;60.20
38784;DHT22;24531;45.502;12.238;2023-09-19T10:01:05;43.80;60.30
38784;DHT22;24531;45.502;12.238;2023-09-19T10:03:38;44.20;59.50
38784;DHT22;24531;45.502;12.238;2023-09-19T10:06:14;44.50;58.60
38784;DHT22;24531;45.502;12.238;2023-09-19T10:11:45;45.00;57.40
38784;DHT22;24531;45.502;12.238;2023-09-19T10:14:15;44.90;57.10
38784;DHT22;24531;45.502;12.238;2023-09-19T10:16:47;44.50;56.90
38784;DHT22;24531;45.502;12.238;2023-09-19T10:19:15;44.00;57.30
38784;DHT22;24531;45.502;12.238;2023-09-19T10:21:41;42.90;59.00
38784;DHT22;24531;45.502;12.238;2023-09-19T10:24:09;41.60;59.90
38784;DHT22;24531;45.502;12.238;2023-09-19T10:26:36;40.50;61.30
38784;DHT22;24531;45.502;12.238;2023-09-19T10:29:03;39.70;62.10
38784;DHT22;24531;45.502;12.238;2023-09-19T10:31:32;39.10;63.00
38784;DHT22;24531;45.502;12.238;2023-09-19T10:34:03;38.50;64.00
38784;DHT22;24531;45.502;12.238;2023-09-19T10:36:33;38.00;64.20
38784;DHT22;24531;45.502;12.238;2023-09-19T10:39:02;37.60;64.30
38784;DHT22;24531;45.502;12.238;2023-09-19T10:41:32;37.20;64.90
38784;DHT22;24531;45.502;12.238;2023-09-19T10:44:04;36.90;65.70
38784;DHT22;24531;45.502;12.238;2023-09-19T10:46:32;36.60;66.50
38784;DHT22;24531;45.502;12.238;2023-09-19T10:49:00;36.50;67.10
38784;DHT22;24531;45.502;12.238;2023-09-19T10:51:30;36.10;67.70
38784;DHT22;24531;45.502;12.238;2023-09-19T10:54:04;35.80;68.50
38784;DHT22;24531;45.502;12.238;2023-09-19T10:56:35;35.40;69.10
38784;DHT22;24531;45.502;12.238;2023-09-19T10:59:15;34.90;69.80
38784;DHT22;24531;45.502;12.238;2023-09-19T11:01:56;34.50;70.50
38784;DHT22;24531;45.502;12.238;2023-09-19T11:07:09;34.10;71.70
38784;DHT22;24531;45.502;12.238;2023-09-19T11:09:55;34.00;72.00
38784;DHT22;24531;45.502;12.238;2023-09-19T11:24:28;34.10;71.80
38784;DHT22;24531;45.502;12.238;2023-09-19T11:27:17;34.10;72.10
38784;DHT22;24531;45.502;12.238;2023-09-19T11:36:12;34.00;72.60
38784;DHT22;24531;45.502;12.238;2023-09-19T11:38:59;33.90;72.60
38784;DHT22;24531;45.502;12.238;2023-09-19T11:41:45;34.00;73.00
38784;DHT22;24531;45.502;12.238;2023-09-19T11:59:38;32.90;74.90
38784;DHT22;24531;45.502;12.238;2023-09-19T12:02:46;32.80;75.40
38784;DHT22;24531;45.502;12.238;2023-09-19T12:08:14;33.30;75.30
38784;DHT22;24531;45.502;12.238;2023-09-19T12:11:17;33.40;74.30
38784;DHT22;24531;45.502;12.238;2023-09-19T12:16:59;33.10;74.10
38784;DHT22;24531;45.502;12.238;2023-09-19T12:19:29;33.10;73.90
38784;DHT22;24531;45.502;12.238;2023-09-19T12:22:02;33.40;74.60
38784;DHT22;24531;45.502;12.238;2023-09-19T12:25:07;33.10;74.60
38784;DHT22;24531;45.502;12.238;2023-09-19T12:27:51;33.20;74.80
38784;DHT22;24531;45.502;12.238;2023-09-19T12:30:42;33.30;74.60
38784;DHT22;24531;45.502;12.238;2023-09-19T12:33:27;33.50;74.30
38784;DHT22;24531;45.502;12.238;2023-09-19T12:35:53;33.70;73.80
38784;DHT22;24531;45.502;12.238;2023-09-19T12:38:26;33.60;73.60
38784;DHT22;24531;45.502;12.238;2023-09-19T12:41:05;33.50;73.40
38784;DHT22;24531;45.502;12.238;2023-09-19T12:43:39;33.60;73.40
38784;DHT22;24531;45.502;12.238;2023-09-19T12:46:08;33.60;72.90
38784;DHT22;24531;45.502;12.238;2023-09-19T12:48:34;33.70;72.80
38784;DHT22;24531;45.502;12.238;2023-09-19T12:53:56;33.80;72.10
38784;DHT22;24531;45.502;12.238;2023-09-19T13:02:15;33.90;72.10
38784;DHT22;24531;45.502;12.238;2023-09-19T13:04:53;33.90;71.30
38784;DHT22;24531;45.502;12.238;2023-09-19T13:11:19;34.00;71.00
38784;DHT22;24531;45.502;12.238;2023-09-19T13:21:34;33.20;72.30
38784;DHT22;24531;45.502;12.238;2023-09-19T13:24:47;33.00;73.20
38784;DHT22;24531;45.502;12.238;2023-09-19T13:27:33;32.70;73.30
38784;DHT22;24531;45.502;12.238;2023-09-19T13:30:08;32.60;73.80
38784;DHT22;24531;45.502;12.238;2023-09-19T13:32:35;32.60;74.40
38784;DHT22;24531;45.502;12.238;2023-09-19T13:35:26;32.70;74.60
38784;DHT22;24531;45.502;12.238;2023-09-19T13:37:51;32.80;74.70
38784;DHT22;24531;45.502;12.238;2023-09-19T13:40:26;33.00;74.50
38784;DHT22;24531;45.502;12.238;2023-09-19T13:42:56;33.10;74.00
38784;DHT22;24531;45.502;12.238;2023-09-19T13:45:22;33.10;73.50
38784;DHT22;24531;45.502;12.238;2023-09-19T13:47:59;33.20;72.90
38784;DHT22;24531;45.502;12.238;2023-09-19T13:50:57;33.20;72.70
38784;DHT22;24531;45.502;12.238;2023-09-19T13:53:31;33.20;72.70
38784;DHT22;24531;45.502;12.238;2023-09-19T13:56:16;33.30;72.40
38784;DHT22;24531;45.502;12.238;2023-09-19T14:01:44;33.50;72.50
38784;DHT22;24531;45.502;12.238;2023-09-19T14:04:30;33.30;72.60
38784;DHT22;24531;45.502;12.238;2023-09-19T14:06:59;33.50;72.80
38784;DHT22;24531;45.502;12.238;2023-09-19T14:09:58;33.60;72.80
38784;DHT22;24531;45.502;12.238;2023-09-19T14:12:23;33.60;72.30
38784;DHT22;24531;45.502;12.238;2023-09-19T14:18:00;33.60;72.50
38784;DHT22;24531;45.502;12.238;2023-09-19T14:20:38;33.60;72.60
38784;DHT22;24531;45.502;12.238;2023-09-19T14:23:07;33.50;72.70
38784;DHT22;24531;45.502;12.238;2023-09-19T14:28:42;33.50;72.30
38784;DHT22;24531;45.502;12.238;2023-09-19T14:48:20;33.40;73.60
38784;DHT22;24531;45.502;12.238;2023-09-19T14:50:53;33.40;73.60
38784;DHT22;24531;45.502;12.238;2023-09-19T15:24:31;32.60;73.30
38784;DHT22;24531;45.502;12.238;2023-09-19T15:27:06;32.70;74.60
38784;DHT22;24531;45.502;12.238;2023-09-19T15:29:53;32.40;75.80
38784;DHT22;24531;45.502;12.238;2023-09-19T15:32:18;32.30;76.90
38784;DHT22;24531;45.502;12.238;2023-09-19T15:45:09;31.10;76.90
38784;DHT22;24531;45.502;12.238;2023-09-19T16:04:01;27.90;81.50
38784;DHT22;24531;45.502;12.238;2023-09-19T17:36:40;27.00;84.30
38784;DHT22;24531;45.502;12.238;2023-09-19T19:10:26;26.50;89.50
38784;DHT22;24531;45.502;12.238;2023-09-19T19:12:52;26.50;89.60
38784;DHT22;24531;45.502;12.238;2023-09-19T19:21:49;26.00;89.50
38784;DHT22;24531;45.502;12.238;2023-09-19T19:24:53;26.40;90.10
38784;DHT22;24531;45.502;12.238;2023-09-19T19:33:56;26.30;90.50
38784;DHT22;24531;45.502;12.238;2023-09-19T19:36:41;26.40;90.60
38784;DHT22;24531;45.502;12.238;2023-09-19T19:39:28;26.40;90.90
38784;DHT22;24531;45.502;12.238;2023-09-19T20:34:00;26.10;92.60
38784;DHT22;24531;45.502;12.238;2023-09-19T21:22:32;25.50;93.60
38784;DHT22;24531;45.502;12.238;2023-09-19T21:25:25;25.50;93.70
38784;DHT22;24531;45.502;12.238;2023-09-19T22:17:49;25.20;94.70
38784;DHT22;24531;45.502;12.238;2023-09-19T22:52:24;24.90;95.20
38784;DHT22;24531;45.502;12.238;2023-09-19T23:32:34;24.50;95.50
38784;DHT22;24531;45.502;12.238;2023-09-19T23:39:06;24.30;95.40
